createdAt,value
2023-03-20T00:02:07.095Z,100516.28
2023-03-20T00:04:35.753Z,100512.63
2023-03-20T00:07:03.946Z,100509.94
2023-03-20T00:09:33.040Z,100497.81
2023-03-20T00:12:01.720Z,100506.28
2023-03-20T00:14:31.212Z,100362.16
2023-03-20T00:16:59.309Z,100501.91
2023-03-20T00:19:29.453Z,100343.91
2023-03-20T00:21:57.994Z,100496.41
2023-03-20T00:24:26.706Z,100493.75
2023-03-20T00:26:55.966Z,100491.91
2023-03-20T00:29:26.254Z,100490.25
2023-03-20T00:31:56.574Z,100481.22
2023-03-20T00:34:29.099Z,100480.34
2023-03-20T00:36:58.175Z,100474.44
2023-03-20T00:39:26.379Z,100484.03
2023-03-20T00:41:57.838Z,100475.13
2023-03-20T00:44:29.399Z,100488.53
2023-03-20T00:47:01.648Z,100477.81
2023-03-20T00:49:32.634Z,100487.56
2023-03-20T00:52:02.270Z,100474.44
2023-03-20T00:54:31.006Z,100477.00
2023-03-20T00:57:02.037Z,100466.16
2023-03-20T00:59:33.048Z,100465.28
2023-03-20T01:02:03.725Z,100467.97
2023-03-20T01:04:37.171Z,100460.78
2023-03-20T01:07:05.690Z,100458.94
2023-03-20T01:09:34.129Z,100373.75
2023-03-20T01:12:03.434Z,100458.13
2023-03-20T01:14:31.591Z,100441.19
2023-03-20T01:16:59.697Z,100451.06
2023-03-20T01:19:29.226Z,100442.34
2023-03-20T01:21:57.479Z,100444.88
2023-03-20T01:24:25.645Z,100435.13
2023-03-20T01:26:54.838Z,100434.03
2023-03-20T01:29:25.383Z,100437.53
2023-03-20T01:31:54.846Z,100436.72
2023-03-20T01:34:23.800Z,100429.63
2023-03-20T01:36:55.141Z,100433.03
2023-03-20T01:39:24.641Z,100424.28
2023-03-20T01:41:54.560Z,100426.00
2023-03-20T01:44:25.702Z,100430.34
2023-03-20T01:46:55.512Z,100425.13
2023-03-20T01:50:00.773Z,100420.66
2023-03-20T01:52:30.442Z,100418.94
2023-03-20T01:54:58.529Z,100407.69
2023-03-20T01:57:27.337Z,100423.47
2023-03-20T01:59:59.544Z,100418.94
2023-03-20T02:02:31.544Z,100418.94
2023-03-20T02:05:03.782Z,100413.56
2023-03-20T02:07:36.180Z,100413.56
2023-03-20T02:10:05.915Z,100403.72
2023-03-20T02:12:36.407Z,100387.94
2023-03-20T02:15:05.015Z,100392.16
2023-03-20T02:17:33.455Z,100402.06
2023-03-20T02:20:13.308Z,100392.16
2023-03-20T02:23:26.428Z,100404.59
2023-03-20T02:26:23.468Z,100398.53
2023-03-20T02:29:23.401Z,100390.50
2023-03-20T02:32:16.640Z,100323.66
2023-03-20T02:35:26.351Z,100390.50
2023-03-20T02:38:14.954Z,100388.81
2023-03-20T02:40:49.274Z,100383.47
2023-03-20T02:43:26.915Z,100388.81
2023-03-20T02:46:01.611Z,100383.47
2023-03-20T02:48:41.149Z,100294.38
2023-03-20T02:51:17.536Z,100388.81
2023-03-20T02:53:54.034Z,100376.38
2023-03-20T02:56:30.186Z,100376.38
2023-03-20T02:59:08.982Z,100367.69
2023-03-20T03:01:41.304Z,100291.13
2023-03-20T03:04:12.965Z,100369.34
2023-03-20T03:06:44.657Z,100362.88
2023-03-20T03:09:20.112Z,100359.38
2023-03-20T03:11:53.011Z,100351.34
2023-03-20T03:14:28.402Z,100251.03
2023-03-20T03:16:58.798Z,100249.34
2023-03-20T03:19:29.775Z,100342.31
2023-03-20T03:21:57.896Z,100347.66
2023-03-20T03:24:40.876Z,100331.59
2023-03-20T03:27:18.889Z,100338.66
2023-03-20T03:29:52.581Z,100331.59
2023-03-20T03:32:26.406Z,100334.28
2023-03-20T03:34:55.081Z,100331.59
2023-03-20T03:37:34.122Z,100324.56
2023-03-20T03:40:11.951Z,100320.91
2023-03-20T03:42:44.446Z,100318.22
2023-03-20T03:45:17.383Z,100320.91
2023-03-20T03:47:49.152Z,100326.25
2023-03-20T03:50:22.219Z,100322.59
2023-03-20T03:52:52.699Z,100327.94
2023-03-20T03:55:26.453Z,100317.22
2023-03-20T03:57:59.484Z,100319.22
2023-03-20T04:00:29.718Z,100327.94
2023-03-20T04:02:59.464Z,100319.22
2023-03-20T04:05:33.429Z,100322.59
2023-03-20T04:08:06.615Z,100331.59
2023-03-20T04:10:36.170Z,100320.03
2023-03-20T04:13:04.543Z,100319.91
2023-03-20T04:15:32.642Z,100317.22
2023-03-20T04:18:00.839Z,100326.25
2023-03-20T04:20:29.694Z,100318.09
2023-03-20T04:22:57.792Z,100318.94
2023-03-20T04:25:27.665Z,100306.53
2023-03-20T04:27:57.168Z,100297.53
2023-03-20T04:30:25.264Z,100301.16
2023-03-20T04:32:53.355Z,100302.88
2023-03-20T04:35:21.493Z,100308.25
2023-03-20T04:37:49.575Z,100302.88
2023-03-20T04:40:18.124Z,100308.25
2023-03-20T04:42:46.202Z,100308.25
2023-03-20T04:45:15.736Z,100307.38
2023-03-20T04:47:43.856Z,100306.53
2023-03-20T04:50:14.094Z,100307.53
2023-03-20T04:52:42.208Z,100297.81
2023-03-20T04:55:10.670Z,100307.25
2023-03-20T04:57:38.715Z,100285.28
2023-03-20T05:00:07.950Z,100309.91
2023-03-20T05:02:37.457Z,100297.25
2023-03-20T05:05:06.123Z,100308.78
2023-03-20T05:07:34.280Z,100309.63
2023-03-20T05:10:02.600Z,100307.09
2023-03-20T05:12:30.693Z,100336.69
2023-03-20T05:14:58.862Z,100310.78
2023-03-20T05:17:26.998Z,100297.81
2023-03-20T05:19:57.402Z,100298.22
2023-03-20T05:22:25.657Z,100292.84
2023-03-20T05:24:54.176Z,100285.69
2023-03-20T05:27:22.250Z,100286.81
2023-03-20T05:29:50.381Z,100290.19
2023-03-20T05:32:18.376Z,100291.91
2023-03-20T05:34:46.507Z,100290.19
2023-03-20T05:37:15.983Z,100293.84
2023-03-20T05:39:44.068Z,100291.19
2023-03-20T05:42:12.123Z,100284.81
2023-03-20T05:44:40.176Z,100293.84
2023-03-20T05:47:08.249Z,100289.34
2023-03-20T05:49:36.300Z,100192.19
2023-03-20T05:52:04.561Z,100290.19
2023-03-20T05:54:34.028Z,100297.53
2023-03-20T05:57:02.190Z,100292.84
2023-03-20T05:59:30.483Z,100290.19
2023-03-20T06:01:58.523Z,100289.34
2023-03-20T06:04:27.091Z,100290.19
2023-03-20T06:06:55.279Z,100306.25
2023-03-20T06:09:23.336Z,100306.25
2023-03-20T06:11:52.927Z,100299.22
2023-03-20T06:14:21.137Z,100300.88
2023-03-20T06:16:49.204Z,100305.41
2023-03-20T06:19:17.360Z,100315.28
2023-03-20T06:21:45.830Z,100309.91
2023-03-20T06:24:13.903Z,100311.75
2023-03-20T06:26:42.111Z,100227.13
2023-03-20T06:29:11.774Z,100323.28
2023-03-20T06:31:39.844Z,100316.25
2023-03-20T06:34:07.902Z,100320.63
2023-03-20T06:36:36.170Z,100275.25
2023-03-20T06:39:04.627Z,100324.28
2023-03-20T06:41:34.860Z,100317.09
2023-03-20T06:44:03.951Z,100321.63
2023-03-20T06:46:33.533Z,100309.91
2023-03-20T06:49:01.714Z,100320.63
2023-03-20T06:51:29.835Z,100308.53
2023-03-20T06:53:57.904Z,100220.94
2023-03-20T06:56:26.248Z,100314.56
2023-03-20T06:58:54.323Z,100318.94
2023-03-20T07:01:23.810Z,100313.59
2023-03-20T07:03:53.545Z,100320.63
2023-03-20T07:06:21.682Z,100315.41
2023-03-20T07:08:49.866Z,100322.59
2023-03-20T07:11:18.221Z,100324.28
2023-03-20T07:13:49.355Z,100317.22
2023-03-20T07:16:18.161Z,100314.56
2023-03-20T07:18:46.353Z,100318.09
2023-03-20T07:21:21.485Z,100305.56
2023-03-20T07:23:49.827Z,100302.88
2023-03-20T07:26:18.169Z,100180.66
2023-03-20T07:28:46.272Z,100213.31
2023-03-20T07:31:21.206Z,100307.25
2023-03-20T07:33:49.365Z,100297.53
2023-03-20T07:36:19.122Z,100226.28
2023-03-20T07:38:47.209Z,100309.06
2023-03-20T07:41:15.524Z,100300.22
2023-03-20T07:43:44.878Z,100308.25
2023-03-20T07:46:13.109Z,100227.09
2023-03-20T07:48:41.176Z,100235.84
2023-03-20T07:51:09.938Z,100305.69
2023-03-20T07:53:39.419Z,100314.69
2023-03-20T07:56:08.676Z,100304.56
2023-03-20T07:58:36.726Z,100315.28
2023-03-20T08:01:05.319Z,100318.94
2023-03-20T08:03:34.138Z,100312.72
2023-03-20T08:06:04.413Z,100322.59
2023-03-20T08:08:32.563Z,100320.75
2023-03-20T08:11:02.151Z,100329.66
2023-03-20T08:13:30.216Z,100336.69
2023-03-20T08:15:58.330Z,100347.38
2023-03-20T08:18:26.499Z,100338.66
2023-03-20T08:20:54.537Z,100326.25
2023-03-20T08:23:22.670Z,100345.72
2023-03-20T08:25:51.147Z,100345.72
2023-03-20T08:28:20.651Z,100347.38
2023-03-20T08:30:48.908Z,100342.19
2023-03-20T08:33:18.542Z,100335.97
2023-03-20T08:35:57.018Z,100349.06
2023-03-20T08:38:25.184Z,100344.00
2023-03-20T08:40:54.809Z,100338.66
2023-03-20T08:43:24.408Z,100344.00
2023-03-20T08:45:52.620Z,100345.72
2023-03-20T08:48:20.709Z,100354.69
2023-03-20T08:50:48.783Z,100345.84
2023-03-20T08:53:16.952Z,100343.31
2023-03-20T08:55:49.499Z,100358.38
2023-03-20T08:58:17.654Z,100349.34
2023-03-20T09:00:47.236Z,100350.19
2023-03-20T09:03:16.696Z,100355.56
2023-03-20T09:05:46.099Z,100353.03
2023-03-20T09:08:14.657Z,100354.69
2023-03-20T09:10:42.944Z,100356.41
2023-03-20T09:13:26.108Z,100354.69
2023-03-20T09:15:57.312Z,100342.88
2023-03-20T09:18:26.092Z,100354.69
2023-03-20T09:20:54.272Z,100353.88
2023-03-20T09:23:22.474Z,100351.34
2023-03-20T09:25:50.578Z,100263.00
2023-03-20T09:28:18.671Z,100358.38
2023-03-20T09:30:47.348Z,100340.63
2023-03-20T09:33:18.643Z,100360.06
2023-03-20T09:35:47.064Z,100361.75
2023-03-20T09:38:15.672Z,100363.59
2023-03-20T09:40:52.570Z,100352.03
2023-03-20T09:43:51.282Z,100361.75
2023-03-20T09:46:34.556Z,100355.56
2023-03-20T09:49:14.678Z,100369.06
2023-03-20T09:51:49.801Z,100364.59
2023-03-20T09:54:25.911Z,100353.03
2023-03-20T09:56:55.400Z,100353.03
2023-03-20T09:59:26.806Z,100347.66
2023-03-20T10:01:57.353Z,100346.81
2023-03-20T10:04:29.827Z,100342.59
2023-03-20T10:06:58.283Z,100352.16
2023-03-20T10:09:28.534Z,100353.03
2023-03-20T10:12:11.610Z,100348.53
2023-03-20T10:14:52.935Z,100346.00
2023-03-20T10:17:32.601Z,100336.97
2023-03-20T10:20:12.068Z,100342.31
2023-03-20T10:22:43.807Z,100194.88
2023-03-20T10:25:24.309Z,100340.63
2023-03-20T10:27:58.801Z,100338.09
2023-03-20T10:30:49.625Z,100346.00
2023-03-20T10:33:34.668Z,100344.28
2023-03-20T10:36:17.040Z,100343.44
2023-03-20T10:38:53.865Z,100342.59
2023-03-20T10:41:26.353Z,100349.63
2023-03-20T10:43:55.912Z,100354.97
2023-03-20T10:46:27.515Z,100358.50
2023-03-20T10:49:02.167Z,100351.34
2023-03-20T10:51:40.469Z,100354.00
2023-03-20T10:54:23.156Z,100355.69
2023-03-20T10:56:55.958Z,100272.13
2023-03-20T10:59:26.667Z,100347.66
2023-03-20T11:01:55.270Z,100340.63
2023-03-20T11:04:23.466Z,100347.94
2023-03-20T11:07:00.012Z,100338.66
2023-03-20T11:09:30.465Z,100342.31
2023-03-20T11:12:01.376Z,100336.97
2023-03-20T11:14:35.165Z,100329.94
2023-03-20T11:17:05.438Z,100335.28
2023-03-20T11:19:36.224Z,100335.28
2023-03-20T11:22:11.279Z,100326.53
2023-03-20T11:24:42.873Z,100336.97
2023-03-20T11:27:13.282Z,100333.28
2023-03-20T11:29:45.734Z,100326.25
2023-03-20T11:32:24.424Z,100344.00
2023-03-20T11:34:53.977Z,100327.94
2023-03-20T11:37:31.107Z,100326.25
2023-03-20T11:40:01.074Z,100331.59
2023-03-20T11:42:31.689Z,100327.94
2023-03-20T11:45:01.853Z,100333.44
2023-03-20T11:47:34.527Z,100252.75
2023-03-20T11:50:06.053Z,100324.56
2023-03-20T11:52:38.307Z,100320.91
2023-03-20T11:55:24.143Z,100331.59
2023-03-20T11:57:52.421Z,100332.47
2023-03-20T12:00:22.793Z,100245.13
2023-03-20T12:02:51.653Z,100204.31
2023-03-20T12:05:31.499Z,100333.28
2023-03-20T12:08:05.159Z,100329.66
2023-03-20T12:10:39.594Z,100152.50
2023-03-20T12:13:14.968Z,100326.97
2023-03-20T12:15:48.291Z,100196.72
2023-03-20T12:18:23.312Z,100333.28
2023-03-20T12:21:03.217Z,100325.41
2023-03-20T12:23:37.368Z,100257.25
2023-03-20T12:26:08.430Z,100340.34
2023-03-20T12:28:42.063Z,100239.78
2023-03-20T12:31:21.241Z,100335.28
2023-03-20T12:33:54.946Z,100329.66
2023-03-20T12:36:31.297Z,100335.00
2023-03-20T12:39:01.173Z,100329.66
2023-03-20T12:41:34.520Z,100329.66
2023-03-20T12:44:24.305Z,100331.31
2023-03-20T12:46:59.732Z,100241.75
2023-03-20T12:49:41.405Z,100329.66
2023-03-20T12:52:16.826Z,100327.94
2023-03-20T12:55:10.697Z,100345.72
2023-03-20T12:57:46.694Z,100330.06
2023-03-20T13:00:24.206Z,100335.97
2023-03-20T13:03:03.605Z,100147.59
2023-03-20T13:05:42.789Z,100338.66
2023-03-20T13:08:32.699Z,100322.59
2023-03-20T13:11:11.432Z,100327.94
2023-03-20T13:13:47.761Z,100342.31
2023-03-20T13:16:25.362Z,100344.00
2023-03-20T13:19:01.722Z,100344.00
2023-03-20T13:21:38.040Z,100351.06
2023-03-20T13:24:28.581Z,100348.38
2023-03-20T13:27:07.098Z,100348.66
2023-03-20T13:29:45.409Z,100346.00
2023-03-20T13:32:21.896Z,100349.34
2023-03-20T13:35:04.993Z,100360.06
2023-03-20T13:37:37.443Z,100353.03
2023-03-20T13:40:12.609Z,100361.91
2023-03-20T13:42:48.994Z,100353.03
2023-03-20T13:45:28.935Z,100169.53
2023-03-20T13:48:01.554Z,100354.69
2023-03-20T13:50:40.380Z,100340.34
2023-03-20T13:53:23.192Z,100354.69
2023-03-20T13:55:59.902Z,100349.63
2023-03-20T13:58:53.034Z,100353.75
2023-03-20T14:01:27.752Z,100187.69
2023-03-20T14:03:56.982Z,100353.03
2023-03-20T14:06:53.281Z,100347.66
2023-03-20T14:09:33.325Z,100353.03
2023-03-20T14:12:07.575Z,100346.00
2023-03-20T14:14:44.558Z,100336.97
2023-03-20T14:17:21.886Z,100339.63
2023-03-20T14:19:51.794Z,100343.16
2023-03-20T14:22:22.076Z,100338.66
2023-03-20T14:25:00.233Z,100166.88
2023-03-20T14:27:43.217Z,100343.03
2023-03-20T14:30:43.325Z,100340.34
2023-03-20T14:33:31.618Z,100340.63
2023-03-20T14:36:20.830Z,100345.13
2023-03-20T14:39:00.570Z,100347.94
2023-03-20T14:41:36.940Z,100354.16
2023-03-20T14:44:21.126Z,100292.28
2023-03-20T14:46:56.230Z,100349.63
2023-03-20T14:49:35.651Z,100348.66
2023-03-20T14:52:24.300Z,100356.69
2023-03-20T14:54:56.444Z,100354.97
2023-03-20T14:57:37.652Z,100353.16
2023-03-20T15:00:21.279Z,100362.03
2023-03-20T15:02:53.737Z,100353.31
2023-03-20T15:05:29.462Z,100353.03
2023-03-20T15:07:59.220Z,100358.38
2023-03-20T15:10:27.529Z,100356.69
2023-03-20T15:12:58.344Z,100363.72
2023-03-20T15:15:28.379Z,100363.72
2023-03-20T15:17:57.851Z,100372.63
2023-03-20T15:20:29.440Z,100374.44
2023-03-20T15:22:59.420Z,100372.63
2023-03-20T15:25:32.824Z,100371.03
2023-03-20T15:28:00.967Z,100383.31
2023-03-20T15:30:33.819Z,100383.47
2023-03-20T15:33:03.659Z,100387.66
2023-03-20T15:35:32.153Z,100378.09
2023-03-20T15:38:06.592Z,100385.84
2023-03-20T15:40:49.971Z,100368.22
2023-03-20T15:43:22.762Z,100285.38
2023-03-20T15:45:57.612Z,100379.78
2023-03-20T15:48:32.504Z,100372.63
2023-03-20T15:51:05.156Z,100297.34
2023-03-20T15:53:35.452Z,100372.75
2023-03-20T15:56:17.240Z,100369.06
2023-03-20T15:58:47.642Z,100204.53
2023-03-20T16:01:20.208Z,100374.44
2023-03-20T16:03:50.508Z,100281.88
2023-03-20T16:06:21.911Z,100384.13
2023-03-20T16:08:59.725Z,100376.13
2023-03-20T16:11:37.880Z,100382.31
2023-03-20T16:14:07.269Z,100384.13
2023-03-20T16:16:37.696Z,100386.81
2023-03-20T16:19:08.661Z,100212.72
2023-03-20T16:21:40.053Z,100385.13
2023-03-20T16:24:11.619Z,100385.41
2023-03-20T16:26:43.715Z,100398.69
2023-03-20T16:29:15.052Z,100391.31
2023-03-20T16:31:48.677Z,100400.34
2023-03-20T16:34:22.123Z,100407.66
2023-03-20T16:36:56.356Z,100413.03
2023-03-20T16:39:27.507Z,100407.66
2023-03-20T16:42:12.246Z,100412.19
2023-03-20T16:44:43.214Z,100400.63
2023-03-20T16:47:23.980Z,100402.59
2023-03-20T16:50:12.728Z,100318.31
2023-03-20T16:52:43.015Z,100421.47
2023-03-20T16:55:19.025Z,100420.66
2023-03-20T16:57:52.868Z,100424.28
2023-03-20T17:00:28.564Z,100429.63
2023-03-20T17:03:06.511Z,100437.66
2023-03-20T17:05:49.249Z,100434.03
2023-03-20T17:08:23.161Z,100445.69
2023-03-20T17:10:55.627Z,100450.22
2023-03-20T17:13:24.156Z,100376.16
2023-03-20T17:15:52.315Z,100451.06
2023-03-20T17:18:20.404Z,100466.16
2023-03-20T17:20:49.907Z,100455.00
2023-03-20T17:23:22.582Z,100465.16
2023-03-20T17:25:52.234Z,100470.50
2023-03-20T17:28:23.227Z,100477.69
2023-03-20T17:30:52.538Z,100479.53
2023-03-20T17:33:22.211Z,100484.88
2023-03-20T17:35:53.034Z,100489.25
2023-03-20T17:38:23.311Z,100482.22
2023-03-20T17:40:52.453Z,100475.84
2023-03-20T17:43:21.462Z,100467.97
2023-03-20T17:45:49.794Z,100469.66
2023-03-20T17:48:20.904Z,100474.19
2023-03-20T17:50:51.679Z,100484.88
2023-03-20T17:53:21.510Z,100489.38
2023-03-20T17:55:49.644Z,100488.53
2023-03-20T17:58:21.072Z,100497.28
2023-03-20T18:00:51.188Z,100487.13
2023-03-20T18:03:19.670Z,100490.25
2023-03-20T18:05:49.904Z,100487.56
2023-03-20T18:08:22.099Z,100491.91
2023-03-20T18:10:51.947Z,100477.69
2023-03-20T18:13:21.220Z,100394.06
2023-03-20T18:15:49.697Z,100464.03
2023-03-20T18:18:18.186Z,100467.38
2023-03-20T18:20:47.089Z,100473.31
2023-03-20T18:23:15.999Z,100474.19
2023-03-20T18:25:45.566Z,100484.88
2023-03-20T18:28:20.592Z,100379.06
2023-03-20T18:30:49.929Z,100515.00
2023-03-20T18:33:18.147Z,100341.94
2023-03-20T18:35:46.487Z,100525.72
2023-03-20T18:38:14.911Z,100524.91
2023-03-20T18:40:47.248Z,100509.66
2023-03-20T18:43:16.766Z,100515.19
2023-03-20T18:45:44.907Z,100518.41
2023-03-20T18:48:13.763Z,100513.91
2023-03-20T18:50:43.478Z,100525.06
2023-03-20T18:53:12.295Z,100437.03
2023-03-20T18:55:40.413Z,100522.13
2023-03-20T18:58:17.081Z,100530.84
2023-03-20T19:00:46.617Z,100536.19
2023-03-20T19:03:14.947Z,100543.25
2023-03-20T19:05:43.088Z,100479.19
2023-03-20T19:08:15.767Z,100551.16
2023-03-20T19:10:44.919Z,100550.28
2023-03-20T19:13:15.819Z,100551.97
2023-03-20T19:15:45.057Z,100473.28
2023-03-20T19:18:18.052Z,100545.94
2023-03-20T19:20:48.137Z,100396.25
2023-03-20T19:23:18.318Z,100551.97
2023-03-20T19:25:48.760Z,100564.41
2023-03-20T19:28:34.565Z,100557.59
2023-03-20T19:31:06.649Z,100567.09
2023-03-20T19:33:36.363Z,100562.69
2023-03-20T19:36:05.095Z,100572.44
2023-03-20T19:38:34.221Z,100567.09
2023-03-20T19:41:03.834Z,100561.28
2023-03-20T19:43:32.371Z,100571.44
2023-03-20T19:46:01.053Z,100587.50
2023-03-20T19:48:47.124Z,100559.06
2023-03-20T19:51:21.592Z,100471.56
2023-03-20T19:53:50.919Z,100554.78
2023-03-20T19:56:22.082Z,100550.56
2023-03-20T19:58:50.926Z,100563.56
2023-03-20T20:01:21.333Z,100557.59
2023-03-20T20:03:51.002Z,100562.69
2023-03-20T20:06:22.319Z,100559.06
2023-03-20T20:08:51.186Z,100558.31
2023-03-20T20:11:19.684Z,100561.88
2023-03-20T20:14:05.648Z,100496.69
2023-03-20T20:16:36.075Z,100568.03
2023-03-20T20:19:04.552Z,100522.91
2023-03-20T20:24:22.622Z,100579.03
2023-03-20T20:27:03.466Z,100587.78
2023-03-20T20:29:39.500Z,100592.28
2023-03-20T20:32:07.711Z,100586.09
2023-03-20T20:40:16.873Z,100587.78
2023-03-20T20:42:47.476Z,100511.84
2023-03-20T20:45:16.530Z,100587.78
2023-03-20T20:47:46.022Z,100582.44
2023-03-20T20:50:15.123Z,100420.44
2023-03-20T20:52:45.227Z,100580.75
2023-03-20T20:55:23.051Z,100582.44
2023-03-20T20:57:52.482Z,100587.78
2023-03-20T21:00:27.387Z,100424.63
2023-03-20T21:03:00.030Z,100588.06
2023-03-20T21:05:28.366Z,100591.47
2023-03-20T21:07:58.136Z,100516.91
2023-03-20T21:10:26.453Z,100597.63
2023-03-20T21:12:59.498Z,100607.53
2023-03-20T21:15:28.382Z,100603.84
2023-03-20T21:18:01.768Z,100609.06
2023-03-20T21:20:30.608Z,100613.44
2023-03-20T21:23:00.348Z,100610.75
2023-03-20T21:25:47.068Z,100612.59
2023-03-20T21:28:15.897Z,100617.97
2023-03-20T21:31:04.198Z,100617.97
2023-03-20T21:33:33.376Z,100621.59
2023-03-20T21:36:01.683Z,100542.00
2023-03-20T21:39:05.877Z,100629.63
2023-03-20T21:41:19.452Z,100632.31
2023-03-20T21:43:47.847Z,100513.94
2023-03-20T22:03:12.550Z,100640.47
2023-03-20T22:15:03.936Z,100655.72
2023-03-20T22:20:40.289Z,100602.00
2023-03-20T22:26:22.457Z,100654.88
2023-03-20T22:29:01.660Z,100643.28
2023-03-20T22:45:12.599Z,100664.72
2023-03-20T22:47:40.925Z,100658.53
2023-03-20T22:50:10.296Z,100664.72
2023-03-20T22:52:48.656Z,100671.06
2023-03-20T22:55:18.441Z,100668.38
2023-03-20T22:57:59.877Z,100678.09
2023-03-20T23:00:33.285Z,100674.59
2023-03-20T23:03:14.130Z,100673.75
2023-03-20T23:05:45.967Z,100681.63
2023-03-20T23:08:14.186Z,100688.69
2023-03-20T23:10:44.270Z,100594.31
2023-03-20T23:13:13.173Z,100690.41
2023-03-20T23:15:42.879Z,100685.88
2023-03-20T23:18:11.769Z,100685.03
2023-03-20T23:20:40.987Z,100682.38
2023-03-20T23:23:09.244Z,100691.34
2023-03-20T23:25:40.233Z,100578.44
2023-03-20T23:28:09.472Z,100694.91
2023-03-20T23:30:45.304Z,100700.25
2023-03-20T23:33:19.242Z,100684.19
2023-03-20T23:35:48.833Z,100698.56
2023-03-20T23:38:17.910Z,100696.59
2023-03-20T23:40:50.488Z,100596.50
2023-03-20T23:43:19.399Z,100703.66
2023-03-20T23:45:47.784Z,100707.28
2023-03-20T23:48:16.168Z,100698.31
2023-03-20T23:50:52.875Z,100697.72
2023-03-20T23:53:22.458Z,100684.19
2023-03-20T23:55:51.755Z,100623.41
2023-03-20T23:58:20.942Z,100666.66
